createdAt,value
2022-10-21T00:01:44.809Z,12.90
2022-10-21T00:04:29.665Z,12.93
2022-10-21T00:07:14.699Z,13.01
2022-10-21T00:10:00.185Z,12.99
2022-10-21T00:12:45.613Z,12.98
2022-10-21T00:15:30.490Z,12.99
2022-10-21T00:18:15.496Z,12.98
2022-10-21T00:21:00.436Z,13.01
2022-10-21T00:23:46.702Z,13.04
2022-10-21T00:26:35.010Z,12.97
2022-10-21T00:29:23.171Z,13.00
2022-10-21T00:32:08.276Z,13.06
2022-10-21T00:34:53.478Z,13.08
2022-10-21T00:37:38.731Z,13.02
2022-10-21T00:40:24.280Z,13.04
2022-10-21T00:43:11.156Z,13.09
2022-10-21T00:46:01.722Z,13.09
2022-10-21T00:48:56.227Z,13.08
2022-10-21T00:51:42.045Z,13.08
2022-10-21T00:54:29.700Z,13.10
2022-10-21T00:57:15.865Z,13.17
2022-10-21T01:00:02.457Z,13.12
2022-10-21T01:02:47.558Z,13.13
2022-10-21T01:05:33.382Z,13.14
2022-10-21T01:08:19.587Z,13.16
2022-10-21T01:11:11.240Z,13.08
2022-10-21T01:14:37.503Z,13.33
2022-10-21T01:17:44.809Z,13.32
2022-10-21T01:20:59.843Z,13.16
2022-10-21T01:24:23.603Z,13.15
2022-10-21T01:27:14.531Z,13.15
2022-10-21T01:30:05.483Z,13.14
2022-10-21T01:36:12.750Z,13.17
2022-10-21T01:39:18.897Z,13.13
2022-10-21T01:42:20.510Z,13.21
2022-10-21T01:45:18.711Z,13.16
2022-10-21T01:48:23.633Z,13.22
2022-10-21T01:51:09.968Z,13.32
2022-10-21T01:54:02.564Z,13.37
2022-10-21T01:56:49.787Z,13.41
2022-10-21T01:59:35.880Z,13.47
2022-10-21T02:02:26.287Z,13.50
2022-10-21T02:05:18.218Z,13.51
2022-10-21T02:08:03.793Z,13.60
2022-10-21T02:10:52.117Z,13.65
2022-10-21T02:13:46.321Z,13.62
2022-10-21T02:16:37.804Z,13.49
2022-10-21T02:19:23.281Z,13.52
2022-10-21T02:22:12.211Z,13.47
2022-10-21T02:25:00.601Z,13.45
2022-10-21T02:27:46.565Z,13.49
2022-10-21T02:30:39.607Z,13.51
2022-10-21T02:33:44.977Z,13.48
2022-10-21T02:37:03.253Z,13.45
2022-10-21T02:39:55.908Z,13.43
2022-10-21T02:42:49.389Z,13.47
2022-10-21T02:45:34.947Z,13.54
2022-10-21T02:48:19.740Z,13.49
2022-10-21T02:51:07.612Z,13.51
2022-10-21T02:53:52.589Z,13.48
2022-10-21T02:56:37.582Z,13.45
2022-10-21T02:59:23.034Z,13.41
2022-10-21T03:02:08.379Z,13.48
2022-10-21T03:04:53.471Z,13.47
2022-10-21T03:07:40.052Z,13.45
2022-10-21T03:10:25.794Z,13.40
2022-10-21T03:13:10.713Z,13.43
2022-10-21T03:15:55.883Z,13.33
2022-10-21T03:18:40.783Z,13.35
2022-10-21T03:21:25.723Z,13.32
2022-10-21T03:24:15.387Z,13.30
2022-10-21T03:27:13.107Z,13.26
2022-10-21T03:29:58.126Z,13.24
2022-10-21T03:32:43.611Z,13.18
2022-10-21T03:35:28.720Z,13.20
2022-10-21T03:38:14.423Z,13.16
2022-10-21T03:40:59.527Z,13.13
2022-10-21T03:43:44.786Z,13.05
2022-10-21T03:46:30.620Z,13.16
2022-10-21T03:49:20.052Z,13.13
2022-10-21T03:52:06.829Z,13.05
2022-10-21T03:54:52.268Z,13.13
2022-10-21T03:57:37.668Z,13.11
2022-10-21T04:00:25.150Z,13.11
2022-10-21T04:03:12.601Z,13.16
2022-10-21T04:05:57.644Z,13.14
2022-10-21T04:08:42.763Z,13.17
2022-10-21T04:11:28.135Z,13.12
2022-10-21T04:14:15.391Z,13.15
2022-10-21T04:17:07.487Z,13.10
2022-10-21T04:19:53.235Z,13.10
2022-10-21T04:22:38.458Z,13.11
2022-10-21T04:25:24.187Z,13.06
2022-10-21T04:28:09.201Z,13.01
2022-10-21T04:30:54.221Z,13.04
2022-10-21T04:33:39.331Z,13.05
2022-10-21T04:36:24.229Z,13.06
2022-10-21T04:39:09.321Z,13.05
2022-10-21T04:41:54.705Z,13.00
2022-10-21T04:44:39.882Z,13.01
2022-10-21T04:47:25.108Z,12.93
2022-10-21T04:50:10.658Z,13.01
2022-10-21T04:52:55.815Z,12.94
2022-10-21T04:55:41.197Z,12.97
2022-10-21T04:58:26.792Z,12.89
2022-10-21T05:01:12.152Z,12.87
2022-10-21T05:03:57.209Z,12.88
2022-10-21T05:06:43.279Z,12.85
2022-10-21T05:09:28.210Z,12.83
2022-10-21T05:12:13.320Z,12.82
2022-10-21T05:14:58.687Z,12.90
2022-10-21T05:17:44.365Z,12.78
2022-10-21T05:20:30.021Z,12.79
2022-10-21T05:23:17.503Z,12.70
2022-10-21T05:26:05.418Z,12.69
2022-10-21T05:28:50.902Z,12.71
2022-10-21T05:31:36.355Z,12.78
2022-10-21T05:34:21.546Z,12.70
2022-10-21T05:37:07.249Z,12.65
2022-10-21T05:39:52.604Z,12.60
2022-10-21T05:42:38.318Z,12.61
2022-10-21T05:45:23.749Z,12.66
2022-10-21T05:48:09.011Z,12.61
2022-10-21T05:50:55.048Z,12.50
2022-10-21T05:53:40.259Z,12.55
2022-10-21T05:56:25.883Z,12.57
2022-10-21T05:59:11.593Z,12.47
2022-10-21T06:01:57.190Z,12.51
2022-10-21T06:04:44.456Z,12.60
2022-10-21T06:07:30.112Z,12.54
2022-10-21T06:10:16.393Z,12.47
2022-10-21T06:13:01.958Z,12.46
2022-10-21T06:15:50.262Z,12.47
2022-10-21T06:18:36.729Z,12.52
2022-10-21T06:21:22.772Z,12.49
2022-10-21T06:24:08.321Z,12.49
2022-10-21T06:26:53.550Z,12.56
2022-10-21T06:29:38.769Z,12.63
2022-10-21T06:32:24.138Z,12.68
2022-10-21T06:35:09.319Z,12.63
2022-10-21T06:37:54.884Z,12.55
2022-10-21T06:40:40.321Z,12.53
2022-10-21T06:43:25.838Z,12.62
2022-10-21T06:46:15.909Z,12.64
2022-10-21T06:49:01.394Z,12.69
2022-10-21T06:51:46.602Z,12.72
2022-10-21T06:54:32.146Z,12.67
2022-10-21T06:57:17.540Z,12.73
2022-10-21T07:00:05.042Z,12.63
2022-10-21T07:02:50.557Z,12.61
2022-10-21T07:05:36.137Z,12.67
2022-10-21T07:08:22.613Z,12.80
2022-10-21T07:11:19.621Z,12.86
2022-10-21T07:14:05.126Z,12.94
2022-10-21T07:16:50.351Z,12.93
2022-10-21T07:19:36.761Z,12.95
2022-10-21T07:22:22.181Z,13.04
2022-10-21T07:25:07.807Z,13.06
2022-10-21T07:27:52.794Z,13.18
2022-10-21T07:30:45.209Z,13.19
2022-10-21T07:33:30.429Z,13.28
2022-10-21T07:36:22.638Z,13.22
2022-10-21T07:39:13.332Z,13.35
2022-10-21T07:41:58.849Z,13.42
2022-10-21T07:44:44.065Z,13.50
2022-10-21T07:47:29.236Z,13.56
2022-10-21T07:50:15.008Z,13.66
2022-10-21T07:53:10.258Z,13.66
2022-10-21T07:56:12.936Z,13.74
2022-10-21T07:58:58.485Z,13.83
2022-10-21T08:01:44.999Z,13.85
2022-10-21T08:04:30.428Z,13.94
2022-10-21T08:07:18.753Z,14.00
2022-10-21T08:10:05.597Z,14.03
2022-10-21T08:12:52.000Z,14.04
2022-10-21T08:15:41.993Z,14.01
2022-10-21T08:18:27.900Z,14.06
2022-10-21T08:21:13.143Z,14.20
2022-10-21T08:24:00.881Z,14.21
2022-10-21T08:26:46.555Z,14.29
2022-10-21T08:29:34.286Z,14.35
2022-10-21T08:32:21.693Z,14.43
2022-10-21T08:35:07.612Z,14.39
2022-10-21T08:37:53.337Z,14.44
2022-10-21T08:40:46.417Z,14.58
2022-10-21T08:43:34.123Z,14.58
2022-10-21T08:46:26.723Z,14.64
2022-10-21T08:49:23.110Z,14.73
2022-10-21T08:52:15.430Z,14.77
2022-10-21T08:55:05.203Z,14.77
2022-10-21T08:57:51.855Z,14.94
2022-10-21T09:00:47.400Z,14.93
2022-10-21T09:03:44.758Z,14.97
2022-10-21T09:06:48.725Z,15.11
2022-10-21T09:09:49.533Z,15.16
2022-10-21T09:12:57.867Z,15.14
2022-10-21T09:16:07.126Z,15.09
2022-10-21T09:19:14.139Z,14.93
2022-10-21T09:22:35.584Z,14.86
2022-10-21T09:25:42.729Z,14.96
2022-10-21T09:28:29.121Z,15.06
2022-10-21T09:31:19.939Z,15.10
2022-10-21T09:34:15.217Z,15.14
2022-10-21T09:37:06.664Z,15.19
2022-10-21T09:40:20.933Z,15.23
2022-10-21T09:43:15.807Z,15.30
2022-10-21T09:46:01.637Z,15.42
2022-10-21T09:51:59.688Z,15.63
2022-10-21T09:54:45.989Z,15.65
2022-10-21T09:57:58.267Z,15.71
2022-10-21T10:00:47.696Z,15.66
2022-10-21T10:03:41.461Z,15.64
2022-10-21T10:06:44.964Z,15.67
2022-10-21T10:09:31.518Z,15.66
2022-10-21T10:12:22.585Z,15.54
2022-10-21T10:15:25.853Z,15.61
2022-10-21T10:18:23.753Z,15.49
2022-10-21T10:21:17.946Z,15.46
2022-10-21T10:24:03.593Z,15.49
2022-10-21T10:26:49.523Z,15.38
2022-10-21T10:29:35.047Z,15.44
2022-10-21T10:32:24.745Z,15.45
2022-10-21T10:35:38.328Z,15.47
2022-10-21T10:38:32.193Z,15.47
2022-10-21T10:41:18.676Z,15.56
2022-10-21T10:44:10.931Z,15.60
2022-10-21T10:46:59.104Z,15.55
2022-10-21T10:49:44.814Z,15.54
2022-10-21T10:52:30.265Z,15.58
2022-10-21T10:55:18.449Z,15.61
2022-10-21T10:58:12.530Z,15.81
2022-10-21T11:01:02.243Z,15.72
2022-10-21T11:03:57.384Z,15.86
2022-10-21T11:06:48.481Z,15.81
2022-10-21T11:09:34.085Z,15.88
2022-10-21T11:12:25.538Z,15.98
2022-10-21T11:15:15.001Z,15.99
2022-10-21T11:18:26.102Z,16.06
2022-10-21T11:21:38.542Z,16.17
2022-10-21T11:24:37.844Z,16.18
2022-10-21T11:27:42.434Z,16.27
2022-10-21T11:30:58.415Z,16.26
2022-10-21T11:33:55.074Z,16.21
2022-10-21T11:37:05.775Z,16.21
2022-10-21T11:40:19.691Z,16.20
2022-10-21T11:43:29.799Z,16.13
2022-10-21T11:46:25.295Z,16.04
2022-10-21T11:49:14.032Z,15.94
2022-10-21T11:52:07.443Z,15.90
2022-10-21T11:55:16.684Z,15.95
2022-10-21T11:58:34.507Z,15.80
2022-10-21T12:01:22.887Z,15.80
2022-10-21T12:04:33.004Z,15.82
2022-10-21T12:07:43.324Z,15.84
2022-10-21T12:10:47.644Z,15.75
2022-10-21T12:13:41.152Z,15.85
2022-10-21T12:16:32.565Z,15.89
2022-10-21T12:19:20.596Z,15.79
2022-10-21T12:22:11.345Z,15.85
2022-10-21T12:25:08.864Z,15.90
2022-10-21T12:28:10.340Z,15.85
2022-10-21T12:31:18.533Z,15.95
2022-10-21T12:34:06.058Z,15.99
2022-10-21T12:36:52.893Z,15.97
2022-10-21T12:39:49.891Z,16.03
2022-10-21T12:42:35.734Z,16.08
2022-10-21T12:45:32.816Z,16.05
2022-10-21T12:48:38.899Z,15.92
2022-10-21T12:51:27.987Z,15.91
2022-10-21T12:54:17.229Z,15.90
2022-10-21T12:57:08.415Z,15.95
2022-10-21T13:00:14.089Z,16.02
2022-10-21T13:03:06.780Z,16.01
2022-10-21T13:06:06.107Z,15.96
2022-10-21T13:08:54.819Z,15.97
2022-10-21T13:11:40.813Z,16.10
2022-10-21T13:14:38.484Z,16.17
2022-10-21T13:17:27.048Z,16.08
2022-10-21T13:20:15.558Z,16.14
2022-10-21T13:23:37.081Z,16.27
2022-10-21T13:26:26.411Z,16.27
2022-10-21T13:29:15.415Z,16.30
2022-10-21T13:32:14.118Z,16.38
2022-10-21T13:35:18.261Z,16.49
2022-10-21T13:38:23.248Z,16.44
2022-10-21T13:41:25.803Z,16.56
2022-10-21T13:44:28.935Z,16.64
2022-10-21T13:47:34.401Z,16.59
2022-10-21T13:50:24.676Z,16.60
2022-10-21T13:53:31.980Z,16.68
2022-10-21T13:56:28.231Z,16.83
2022-10-21T13:59:29.011Z,16.85
2022-10-21T14:02:25.787Z,16.98
2022-10-21T14:05:30.275Z,17.02
2022-10-21T14:08:47.022Z,16.86
2022-10-21T14:11:37.360Z,16.84
2022-10-21T14:14:26.904Z,16.83
2022-10-21T14:17:18.946Z,16.94
2022-10-21T14:20:15.967Z,17.12
2022-10-21T14:23:06.751Z,17.00
2022-10-21T14:25:55.560Z,16.97
2022-10-21T14:28:50.464Z,16.98
2022-10-21T14:31:36.425Z,16.88
2022-10-21T14:34:27.540Z,16.90
2022-10-21T14:37:12.921Z,16.83
2022-10-21T14:40:10.757Z,16.84
2022-10-21T14:42:56.050Z,16.77
2022-10-21T14:45:47.943Z,16.80
2022-10-21T14:48:54.029Z,16.84
2022-10-21T14:51:39.768Z,16.80
2022-10-21T14:54:44.851Z,16.81
2022-10-21T14:57:42.773Z,16.84
2022-10-21T15:00:37.647Z,16.77
2022-10-21T15:04:00.932Z,16.75
2022-10-21T15:07:00.648Z,16.68
2022-10-21T15:10:13.190Z,16.76
2022-10-21T15:12:58.841Z,16.86
2022-10-21T15:15:54.115Z,16.82
2022-10-21T15:18:44.010Z,16.74
2022-10-21T15:21:50.631Z,16.81
2022-10-21T15:24:43.825Z,16.94
2022-10-21T15:27:40.100Z,17.06
2022-10-21T15:30:27.646Z,17.69
2022-10-21T15:33:13.521Z,18.16
2022-10-21T15:36:09.354Z,18.03
2022-10-21T15:38:54.890Z,17.75
2022-10-21T15:41:41.098Z,18.29
2022-10-21T15:44:29.779Z,19.09
2022-10-21T15:47:15.161Z,19.58
2022-10-21T15:50:00.653Z,19.09
2022-10-21T15:52:46.483Z,18.54
2022-10-21T15:55:33.128Z,18.10
2022-10-21T15:58:18.782Z,17.72
2022-10-21T16:01:04.228Z,17.53
2022-10-21T16:03:49.504Z,17.40
2022-10-21T16:06:35.366Z,17.21
2022-10-21T16:09:26.602Z,17.14
2022-10-21T16:12:11.931Z,16.94
2022-10-21T16:14:57.186Z,16.74
2022-10-21T16:17:48.198Z,16.58
2022-10-21T16:20:33.761Z,16.41
2022-10-21T16:23:18.948Z,16.30
2022-10-21T16:26:13.476Z,16.21
2022-10-21T16:28:59.066Z,16.14
2022-10-21T16:31:44.590Z,16.11
2022-10-21T16:34:30.287Z,16.12
2022-10-21T16:37:27.337Z,16.10
2022-10-21T16:40:16.882Z,16.03
2022-10-21T16:43:02.540Z,15.97
2022-10-21T16:45:47.659Z,15.93
2022-10-21T16:48:33.554Z,15.82
2022-10-21T16:51:20.228Z,15.79
2022-10-21T16:54:06.460Z,15.77
2022-10-21T16:56:54.970Z,15.71
2022-10-21T16:59:41.757Z,15.73
2022-10-21T17:02:27.440Z,15.73
2022-10-21T17:05:13.638Z,15.75
2022-10-21T17:07:59.195Z,15.82
2022-10-21T17:10:44.703Z,15.86
2022-10-21T17:13:30.430Z,15.93
2022-10-21T17:16:16.603Z,15.93
2022-10-21T17:19:02.071Z,15.89
2022-10-21T17:21:47.950Z,15.85
2022-10-21T17:24:33.560Z,15.83
2022-10-21T17:27:19.775Z,15.86
2022-10-21T17:30:06.168Z,15.87
2022-10-21T17:32:52.187Z,15.83
2022-10-21T17:35:37.614Z,15.77
2022-10-21T17:38:22.755Z,15.80
2022-10-21T17:41:15.688Z,15.77
2022-10-21T17:44:00.927Z,15.67
2022-10-21T17:46:49.102Z,15.68
2022-10-21T17:49:34.559Z,15.54
2022-10-21T17:52:20.229Z,15.48
2022-10-21T17:55:07.453Z,15.45
2022-10-21T17:57:52.625Z,15.42
2022-10-21T18:00:43.709Z,15.42
2022-10-21T18:03:30.303Z,15.38
2022-10-21T18:06:16.007Z,15.35
2022-10-21T18:09:02.013Z,15.32
2022-10-21T18:11:47.352Z,15.28
2022-10-21T18:14:32.771Z,15.29
2022-10-21T18:17:19.601Z,15.30
2022-10-21T18:20:05.562Z,15.21
2022-10-21T18:22:54.103Z,15.21
2022-10-21T18:25:40.464Z,15.15
2022-10-21T18:28:26.105Z,15.22
2022-10-21T18:31:12.451Z,15.28
2022-10-21T18:33:59.425Z,15.19
2022-10-21T18:36:44.945Z,15.19
2022-10-21T18:39:30.535Z,15.24
2022-10-21T18:42:16.496Z,15.18
2022-10-21T18:45:11.307Z,15.24
2022-10-21T18:48:09.429Z,15.22
2022-10-21T18:51:17.805Z,15.08
2022-10-21T18:54:16.566Z,15.13
2022-10-21T18:57:09.727Z,15.00
2022-10-21T18:59:55.258Z,15.02
2022-10-21T19:02:41.214Z,14.93
2022-10-21T19:05:27.231Z,14.97
2022-10-21T19:08:13.039Z,14.89
2022-10-21T19:11:01.406Z,14.83
2022-10-21T19:13:46.903Z,14.74
2022-10-21T19:16:32.580Z,14.71
2022-10-21T19:19:17.990Z,14.71
2022-10-21T19:22:03.889Z,14.61
2022-10-21T19:24:49.384Z,14.71
2022-10-21T19:27:34.960Z,14.59
2022-10-21T19:30:30.788Z,14.51
2022-10-21T19:33:26.037Z,14.55
2022-10-21T19:36:17.880Z,14.51
2022-10-21T19:39:04.310Z,14.50
2022-10-21T19:41:52.395Z,14.33
2022-10-21T19:44:38.128Z,14.27
2022-10-21T19:47:23.834Z,14.29
2022-10-21T19:52:55.152Z,14.30
2022-10-21T19:55:40.552Z,14.41
2022-10-21T19:58:26.343Z,14.29
2022-10-21T20:01:13.817Z,14.19
2022-10-21T20:04:01.350Z,14.22
2022-10-21T20:06:46.532Z,14.19
2022-10-21T20:09:33.886Z,14.21
2022-10-21T20:12:22.059Z,14.18
2022-10-21T20:15:07.743Z,14.19
2022-10-21T20:17:53.113Z,14.15
2022-10-21T20:20:41.452Z,14.16
2022-10-21T20:23:26.736Z,14.20
2022-10-21T20:26:12.640Z,14.10
2022-10-21T20:28:59.211Z,14.06
2022-10-21T20:31:46.153Z,14.01
2022-10-21T20:34:34.128Z,14.02
2022-10-21T20:37:23.044Z,14.03
2022-10-21T20:40:08.926Z,13.81
2022-10-21T20:42:55.154Z,13.78
2022-10-21T20:45:40.749Z,13.77
2022-10-21T20:48:28.118Z,13.79
2022-10-21T20:51:16.551Z,13.84
2022-10-21T20:54:08.876Z,13.97
2022-10-21T20:56:54.258Z,13.88
2022-10-21T20:59:40.264Z,13.93
2022-10-21T21:02:25.758Z,13.77
2022-10-21T21:05:10.976Z,13.95
2022-10-21T21:07:56.762Z,13.88
2022-10-21T21:10:43.575Z,13.38
2022-10-21T21:13:29.421Z,13.44
2022-10-21T21:16:21.267Z,13.37
2022-10-21T21:19:07.640Z,13.37
2022-10-21T21:21:52.799Z,13.41
2022-10-21T21:24:38.630Z,13.44
2022-10-21T21:27:25.702Z,13.47
2022-10-21T21:30:13.354Z,13.49
2022-10-21T21:32:59.006Z,13.34
2022-10-21T21:35:45.996Z,13.44
2022-10-21T21:38:33.958Z,13.41
2022-10-21T21:41:20.405Z,13.36
2022-10-21T21:44:07.298Z,13.47
2022-10-21T21:46:52.449Z,13.45
2022-10-21T21:49:37.616Z,13.50
2022-10-21T21:52:23.495Z,13.43
2022-10-21T21:55:09.312Z,13.42
2022-10-21T21:57:55.067Z,13.31
2022-10-21T22:00:40.440Z,13.38
2022-10-21T22:03:25.932Z,13.38
2022-10-21T22:06:11.724Z,13.41
2022-10-21T22:08:58.148Z,13.32
2022-10-21T22:11:43.528Z,13.22
2022-10-21T22:14:31.405Z,13.17
2022-10-21T22:17:19.008Z,13.30
2022-10-21T22:20:06.752Z,13.12
2022-10-21T22:22:52.594Z,13.11
2022-10-21T22:25:37.930Z,12.97
2022-10-21T22:28:24.127Z,13.00
2022-10-21T22:31:18.008Z,13.04
2022-10-21T22:34:05.371Z,12.98
2022-10-21T22:36:53.400Z,12.94
2022-10-21T22:39:38.855Z,12.98
2022-10-21T22:42:24.156Z,12.82
2022-10-21T22:45:09.684Z,12.79
2022-10-21T22:47:55.614Z,12.77
2022-10-21T22:50:41.405Z,12.86
2022-10-21T22:53:27.315Z,12.89
2022-10-21T22:56:12.810Z,12.79
2022-10-21T22:58:58.748Z,12.83
2022-10-21T23:01:46.661Z,12.81
2022-10-21T23:04:32.994Z,13.08
2022-10-21T23:07:18.267Z,12.86
2022-10-21T23:10:04.710Z,12.76
2022-10-21T23:12:50.462Z,12.93
2022-10-21T23:15:36.280Z,12.85
2022-10-21T23:18:21.796Z,12.72
2022-10-21T23:21:07.121Z,12.74
2022-10-21T23:23:52.431Z,12.48
2022-10-21T23:26:37.685Z,12.55
2022-10-21T23:29:23.238Z,12.42
2022-10-21T23:32:08.663Z,12.42
2022-10-21T23:34:54.286Z,12.35
2022-10-21T23:37:41.324Z,12.33
2022-10-21T23:40:28.119Z,12.36
2022-10-21T23:43:13.587Z,12.39
2022-10-21T23:45:59.085Z,12.38
2022-10-21T23:48:44.600Z,12.35
2022-10-21T23:51:30.056Z,12.36
2022-10-21T23:54:15.384Z,12.42
2022-10-21T23:57:00.597Z,12.48
2022-10-21T23:59:46.021Z,12.57
